sensor_id;sensor_type;location;lat;lon;timestamp;pressure;altitude;pressure_sealevel;temperature;humidity
22047;BME280;11187;49.412;20.956;2022-09-27T00:01:01;93947.06;;;11.24;100.00
22047;BME280;11187;49.412;20.956;2022-09-27T00:03:35;93947.94;;;11.24;100.00
22047;BME280;11187;49.412;20.956;2022-09-27T00:06:27;93940.25;;;11.24;100.00
22047;BME280;11187;49.412;20.956;2022-09-27T00:09:06;93940.25;;;11.24;100.00
22047;BME280;11187;49.412;20.956;2022-09-27T00:11:53;93940.28;;;11.23;100.00
22047;BME280;11187;49.412;20.956;2022-09-27T00:14:26;93934.34;;;11.22;100.00
22047;BME280;11187;49.412;20.956;2022-09-27T00:17:13;93932.66;;;11.21;100.00
22047;BME280;11187;49.412;20.956;2022-09-27T00:19:46;93937.78;;;11.21;100.00
22047;BME280;11187;49.412;20.956;2022-09-27T00:22:42;93930.94;;;11.22;100.00
22047;BME280;11187;49.412;20.956;2022-09-27T00:25:36;93932.75;;;11.20;100.00
22047;BME280;11187;49.412;20.956;2022-09-27T00:28:09;93919.06;;;11.19;100.00
22047;BME280;11187;49.412;20.956;2022-09-27T00:31:03;93920.88;;;11.17;100.00
22047;BME280;11187;49.412;20.956;2022-09-27T00:33:37;93921.81;;;11.15;100.00
22047;BME280;11187;49.412;20.956;2022-09-27T00:36:24;93923.69;;;11.11;100.00
22047;BME280;11187;49.412;20.956;2022-09-27T00:38:58;93926.28;;;11.10;100.00
22047;BME280;11187;49.412;20.956;2022-09-27T00:41:52;93921.22;;;11.08;100.00
22047;BME280;11187;49.412;20.956;2022-09-27T00:47:36;93915.41;;;11.04;100.00
22047;BME280;11187;49.412;20.956;2022-09-27T00:50:38;93913.03;;;11.00;100.00
22047;BME280;11187;49.412;20.956;2022-09-27T00:53:37;93910.56;;;10.97;100.00
22047;BME280;11187;49.412;20.956;2022-09-27T00:56:21;93906.47;;;10.93;100.00
22047;BME280;11187;49.412;20.956;2022-09-27T01:01:51;93894.63;;;10.90;100.00
22047;BME280;11187;49.412;20.956;2022-09-27T01:04:45;93891.31;;;10.88;100.00
22047;BME280;11187;49.412;20.956;2022-09-27T01:07:41;93891.41;;;10.85;100.00
22047;BME280;11187;49.412;20.956;2022-09-27T01:10:15;93891.47;;;10.83;100.00
22047;BME280;11187;49.412;20.956;2022-09-27T01:13:29;93883.81;;;10.83;100.00
22047;BME280;11187;49.412;20.956;2022-09-27T01:16:20;93882.06;;;10.84;100.00
22047;BME280;11187;49.412;20.956;2022-09-27T01:22:40;93879.50;;;10.84;100.00
22047;BME280;11187;49.412;20.956;2022-09-27T01:43:23;93851.53;;;10.79;100.00
22047;BME280;11187;49.412;20.956;2022-09-27T01:46:22;93848.13;;;10.79;100.00
22047;BME280;11187;49.412;20.956;2022-09-27T01:49:41;93848.19;;;10.77;100.00
22047;BME280;11187;49.412;20.956;2022-09-27T01:52:38;93855.88;;;10.77;100.00
22047;BME280;11187;49.412;20.956;2022-09-27T01:55:36;93862.00;;;10.73;100.00
22047;BME280;11187;49.412;20.956;2022-09-27T01:58:41;93857.88;;;10.69;100.00
22047;BME280;11187;49.412;20.956;2022-09-27T02:01:17;93857.09;;;10.67;100.00
22047;BME280;11187;49.412;20.956;2022-09-27T02:04:10;93856.34;;;10.65;100.00
22047;BME280;11187;49.412;20.956;2022-09-27T02:06:48;93854.63;;;10.65;100.00
22047;BME280;11187;49.412;20.956;2022-09-27T02:09:55;93849.59;;;10.62;100.00
22047;BME280;11187;49.412;20.956;2022-09-27T02:12:32;93853.94;;;10.60;100.00
22047;BME280;11187;49.412;20.956;2022-09-27T02:15:25;93855.75;;;10.58;100.00
22047;BME280;11187;49.412;20.956;2022-09-27T02:18:13;93854.13;;;10.56;100.00
22047;BME280;11187;49.412;20.956;2022-09-27T02:21:10;93856.78;;;10.54;100.00
22047;BME280;11187;49.412;20.956;2022-09-27T02:23:53;93852.47;;;10.55;100.00
22047;BME280;11187;49.412;20.956;2022-09-27T02:26:57;93848.19;;;10.55;100.00
22047;BME280;11187;49.412;20.956;2022-09-27T02:30:10;93850.81;;;10.54;100.00
22047;BME280;11187;49.412;20.956;2022-09-27T02:32:44;93855.09;;;10.53;100.00
22047;BME280;11187;49.412;20.956;2022-09-27T02:35:32;93845.75;;;10.52;100.00
22047;BME280;11187;49.412;20.956;2022-09-27T02:38:06;93850.91;;;10.51;100.00
22047;BME280;11187;49.412;20.956;2022-09-27T02:41:00;93842.41;;;10.50;100.00
22047;BME280;11187;49.412;20.956;2022-09-27T02:44:02;93836.47;;;10.50;100.00
22047;BME280;11187;49.412;20.956;2022-09-27T03:02:50;93818.06;;;10.40;100.00
22047;BME280;11187;49.412;20.956;2022-09-27T03:05:28;93815.41;;;10.43;100.00
22047;BME280;11187;49.412;20.956;2022-09-27T03:08:17;93819.63;;;10.44;100.00
22047;BME280;11187;49.412;20.956;2022-09-27T03:15:54;93811.06;;;10.45;100.00
22047;BME280;11187;49.412;20.956;2022-09-27T03:18:47;93806.00;;;10.43;100.00
22047;BME280;11187;49.412;20.956;2022-09-27T03:21:21;93806.81;;;10.44;100.00
22047;BME280;11187;49.412;20.956;2022-09-27T03:24:07;93804.25;;;10.44;100.00
22047;BME280;11187;49.412;20.956;2022-09-27T03:26:41;93802.66;;;10.41;100.00
22047;BME280;11187;49.412;20.956;2022-09-27T03:29:32;93795.00;;;10.41;100.00
22047;BME280;11187;49.412;20.956;2022-09-27T03:32:06;93789.00;;;10.42;100.00
22047;BME280;11187;49.412;20.956;2022-09-27T03:34:52;93779.63;;;10.41;100.00
22047;BME280;11187;49.412;20.956;2022-09-27T03:37:27;93777.13;;;10.40;100.00
22047;BME280;11187;49.412;20.956;2022-09-27T03:40:20;93783.03;;;10.42;100.00
22047;BME280;11187;49.412;20.956;2022-09-27T03:43:14;93778.00;;;10.40;100.00
22047;BME280;11187;49.412;20.956;2022-09-27T03:45:48;93770.22;;;10.42;100.00
22047;BME280;11187;49.412;20.956;2022-09-27T03:48:34;93775.47;;;10.39;100.00
22047;BME280;11187;49.412;20.956;2022-09-27T03:51:08;93775.47;;;10.39;100.00
22047;BME280;11187;49.412;20.956;2022-09-27T03:54:01;93789.91;;;10.40;100.00
22047;BME280;11187;49.412;20.956;2022-09-27T03:56:55;93783.97;;;10.39;100.00
22047;BME280;11187;49.412;20.956;2022-09-27T03:59:50;93789.91;;;10.40;100.00
22047;BME280;11187;49.412;20.956;2022-09-27T04:02:27;93795.94;;;10.39;100.00
22047;BME280;11187;49.412;20.956;2022-09-27T04:05:20;93792.59;;;10.37;100.00
22047;BME280;11187;49.412;20.956;2022-09-27T04:08:14;93788.31;;;10.37;100.00
22047;BME280;11187;49.412;20.956;2022-09-27T04:11:09;93774.66;;;10.38;100.00
22047;BME280;11187;49.412;20.956;2022-09-27T04:14:03;93787.44;;;10.38;100.00
22047;BME280;11187;49.412;20.956;2022-09-27T04:16:58;93784.09;;;10.36;100.00
22047;BME280;11187;49.412;20.956;2022-09-27T04:19:32;93781.56;;;10.36;100.00
22047;BME280;11187;49.412;20.956;2022-09-27T04:22:25;93780.78;;;10.34;100.00
22047;BME280;11187;49.412;20.956;2022-09-27T04:25:19;93771.38;;;10.35;100.00
22047;BME280;11187;49.412;20.956;2022-09-27T04:27:53;93767.97;;;10.34;100.00
22047;BME280;11187;49.412;20.956;2022-09-27T04:30:46;93778.22;;;10.34;100.00
22047;BME280;11187;49.412;20.956;2022-09-27T04:33:40;93779.13;;;10.33;100.00
22047;BME280;11187;49.412;20.956;2022-09-27T04:36:35;93782.59;;;10.31;100.00
22047;BME280;11187;49.412;20.956;2022-09-27T04:39:09;93787.81;;;10.29;100.00
22047;BME280;11187;49.412;20.956;2022-09-27T04:41:55;93786.94;;;10.29;100.00
22047;BME280;11187;49.412;20.956;2022-09-27T04:44:29;93786.09;;;10.28;100.00
22047;BME280;11187;49.412;20.956;2022-09-27T04:47:22;93780.16;;;10.28;100.00
22047;BME280;11187;49.412;20.956;2022-09-27T04:49:56;93780.97;;;10.28;100.00
22047;BME280;11187;49.412;20.956;2022-09-27T04:52:50;93784.44;;;10.27;100.00
22047;BME280;11187;49.412;20.956;2022-09-27T04:55:24;93768.25;;;10.27;100.00
22047;BME280;11187;49.412;20.956;2022-09-27T04:58:17;93763.19;;;10.25;100.00
22047;BME280;11187;49.412;20.956;2022-09-27T05:00:51;93763.16;;;10.27;100.00
22047;BME280;11187;49.412;20.956;2022-09-27T05:03:44;93761.41;;;10.27;100.00
22047;BME280;11187;49.412;20.956;2022-09-27T05:06:18;93770.75;;;10.28;100.00
22047;BME280;11187;49.412;20.956;2022-09-27T05:09:11;93764.84;;;10.26;100.00
22047;BME280;11187;49.412;20.956;2022-09-27T05:12:05;93754.75;;;10.23;100.00
22047;BME280;11187;49.412;20.956;2022-09-27T05:14:41;93752.25;;;10.21;100.00
22047;BME280;11187;49.412;20.956;2022-09-27T05:17:27;93749.69;;;10.21;100.00
22047;BME280;11187;49.412;20.956;2022-09-27T05:20:02;93751.41;;;10.21;100.00
22047;BME280;11187;49.412;20.956;2022-09-27T05:22:56;93750.63;;;10.19;100.00
22047;BME280;11187;49.412;20.956;2022-09-27T05:25:50;93746.28;;;10.21;100.00
22047;BME280;11187;49.412;20.956;2022-09-27T05:28:44;93750.53;;;10.22;100.00
22047;BME280;11187;49.412;20.956;2022-09-27T05:31:38;93751.41;;;10.21;100.00
22047;BME280;11187;49.412;20.956;2022-09-27T05:34:12;93749.69;;;10.21;100.00
22047;BME280;11187;49.412;20.956;2022-09-27T05:37:07;93751.38;;;10.22;100.00
22047;BME280;11187;49.412;20.956;2022-09-27T05:40:02;93747.91;;;10.23;100.00
22047;BME280;11187;49.412;20.956;2022-09-27T05:43:18;93738.56;;;10.22;100.00
22047;BME280;11187;49.412;20.956;2022-09-27T05:46:13;93739.41;;;10.23;100.00
22047;BME280;11187;49.412;20.956;2022-09-27T05:48:47;93743.75;;;10.21;100.00
22047;BME280;11187;49.412;20.956;2022-09-27T05:51:40;93738.66;;;10.19;100.00
22047;BME280;11187;49.412;20.956;2022-09-27T05:54:14;93733.56;;;10.19;100.00
22047;BME280;11187;49.412;20.956;2022-09-27T05:57:00;93727.56;;;10.20;100.00
22047;BME280;11187;49.412;20.956;2022-09-27T05:59:34;93726.75;;;10.20;100.00
22047;BME280;11187;49.412;20.956;2022-09-27T06:02:29;93725.88;;;10.19;100.00
22047;BME280;11187;49.412;20.956;2022-09-27T06:05:03;93725.00;;;10.20;100.00
22047;BME280;11187;49.412;20.956;2022-09-27T06:07:57;93726.59;;;10.23;100.00
22047;BME280;11187;49.412;20.956;2022-09-27T06:10:32;93727.44;;;10.23;100.00
22047;BME280;11187;49.412;20.956;2022-09-27T06:13:25;93725.66;;;10.25;100.00
22047;BME280;11187;49.412;20.956;2022-09-27T06:16:21;93726.47;;;10.26;100.00
22047;BME280;11187;49.412;20.956;2022-09-27T06:18:55;93728.22;;;10.25;100.00
22047;BME280;11187;49.412;20.956;2022-09-27T06:21:50;93729.13;;;10.24;100.00
22047;BME280;11187;49.412;20.956;2022-09-27T06:24:44;93730.00;;;10.23;100.00
22047;BME280;11187;49.412;20.956;2022-09-27T06:27:18;93740.22;;;10.23;100.00
22047;BME280;11187;49.412;20.956;2022-09-27T06:30:11;93734.28;;;10.23;100.00
22047;BME280;11187;49.412;20.956;2022-09-27T06:32:46;93745.34;;;10.23;100.00
22047;BME280;11187;49.412;20.956;2022-09-27T06:35:35;93730.06;;;10.22;100.00
22047;BME280;11187;49.412;20.956;2022-09-27T06:38:13;93724.09;;;10.21;100.00
22047;BME280;11187;49.412;20.956;2022-09-27T06:41:02;93723.22;;;10.22;100.00
22047;BME280;11187;49.412;20.956;2022-09-27T06:43:55;93718.13;;;10.22;100.00
22047;BME280;11187;49.412;20.956;2022-09-27T06:46:50;93715.41;;;10.25;100.00
22047;BME280;11187;49.412;20.956;2022-09-27T06:49:44;93711.09;;;10.28;100.00
22047;BME280;11187;49.412;20.956;2022-09-27T06:52:18;93717.03;;;10.28;100.00
22047;BME280;11187;49.412;20.956;2022-09-27T06:55:11;93717.81;;;10.30;100.00
22047;BME280;11187;49.412;20.956;2022-09-27T06:58:06;93719.56;;;10.30;100.00
22047;BME280;11187;49.412;20.956;2022-09-27T07:00:59;93720.38;;;10.30;100.00
22047;BME280;11187;49.412;20.956;2022-09-27T07:04:08;93722.91;;;10.32;100.00
22047;BME280;11187;49.412;20.956;2022-09-27T07:06:43;93721.09;;;10.34;100.00
22047;BME280;11187;49.412;20.956;2022-09-27T07:09:41;93728.78;;;10.34;100.00
22047;BME280;11187;49.412;20.956;2022-09-27T07:12:35;93721.94;;;10.34;100.00
22047;BME280;11187;49.412;20.956;2022-09-27T07:15:33;93727.88;;;10.35;100.00
22047;BME280;11187;49.412;20.956;2022-09-27T07:18:09;93720.19;;;10.35;100.00
22047;BME280;11187;49.412;20.956;2022-09-27T07:20:58;93715.84;;;10.37;100.00
22047;BME280;11187;49.412;20.956;2022-09-27T07:23:32;93715.84;;;10.37;100.00
22047;BME280;11187;49.412;20.956;2022-09-27T07:26:25;93719.25;;;10.37;100.00
22047;BME280;11187;49.412;20.956;2022-09-27T07:29:19;93718.28;;;10.40;100.00
22047;BME280;11187;49.412;20.956;2022-09-27T07:31:53;93719.91;;;10.42;100.00
22047;BME280;11187;49.412;20.956;2022-09-27T07:34:46;93717.34;;;10.42;100.00
22047;BME280;11187;49.412;20.956;2022-09-27T07:37:41;93724.94;;;10.44;100.00
22047;BME280;11187;49.412;20.956;2022-09-27T07:40:15;93712.97;;;10.44;100.00
22047;BME280;11187;49.412;20.956;2022-09-27T07:43:01;93714.63;;;10.47;100.00
22047;BME280;11187;49.412;20.956;2022-09-27T07:45:38;93722.22;;;10.49;100.00
22047;BME280;11187;49.412;20.956;2022-09-27T07:48:31;93720.50;;;10.49;100.00
22047;BME280;11187;49.412;20.956;2022-09-27T07:51:25;93716.13;;;10.51;100.00
22047;BME280;11187;49.412;20.956;2022-09-27T07:54:19;93721.25;;;10.51;100.00
22047;BME280;11187;49.412;20.956;2022-09-27T07:57:14;93721.19;;;10.53;100.00
22047;BME280;11187;49.412;20.956;2022-09-27T07:59:48;93718.59;;;10.54;100.00
22047;BME280;11187;49.412;20.956;2022-09-27T08:02:34;93721.06;;;10.56;100.00
22047;BME280;11187;49.412;20.956;2022-09-27T08:05:09;93726.13;;;10.57;100.00
22047;BME280;11187;49.412;20.956;2022-09-27T08:08:03;93720.13;;;10.58;100.00
22047;BME280;11187;49.412;20.956;2022-09-27T08:10:37;93719.22;;;10.59;100.00
22047;BME280;11187;49.412;20.956;2022-09-27T08:13:32;93719.16;;;10.61;100.00
22047;BME280;11187;49.412;20.956;2022-09-27T08:16:26;93720.75;;;10.63;100.00
22047;BME280;11187;49.412;20.956;2022-09-27T08:19:01;93718.97;;;10.65;100.00
22047;BME280;11187;49.412;20.956;2022-09-27T08:21:51;93718.91;;;10.67;100.00
22047;BME280;11187;49.412;20.956;2022-09-27T08:24:27;93717.09;;;10.69;100.00
22047;BME280;11187;49.412;20.956;2022-09-27T08:27:15;93723.81;;;10.72;100.00
22047;BME280;11187;49.412;20.956;2022-09-27T08:29:49;93714.34;;;10.74;100.00
22047;BME280;11187;49.412;20.956;2022-09-27T08:32:38;93714.25;;;10.77;100.00
22047;BME280;11187;49.412;20.956;2022-09-27T08:35:12;93705.59;;;10.79;100.00
22047;BME280;11187;49.412;20.956;2022-09-27T08:38:00;93714.88;;;10.82;100.00
22047;BME280;11187;49.412;20.956;2022-09-27T08:46:40;93697.59;;;10.87;100.00
22047;BME280;11187;49.412;20.956;2022-09-27T08:49:52;93695.66;;;10.92;100.00
22047;BME280;11187;49.412;20.956;2022-09-27T08:52:31;93700.53;;;10.98;100.00
22047;BME280;11187;49.412;20.956;2022-09-27T09:01:05;93701.72;;;11.10;100.00
22047;BME280;11187;49.412;20.956;2022-09-27T09:03:54;93698.97;;;11.15;100.00
22047;BME280;11187;49.412;20.956;2022-09-27T09:09:40;93694.56;;;11.18;100.00
22047;BME280;11187;49.412;20.956;2022-09-27T09:21:57;93675.94;;;11.34;100.00
22047;BME280;11187;49.412;20.956;2022-09-27T09:28:10;93667.84;;;11.43;100.00
22047;BME280;11187;49.412;20.956;2022-09-27T09:31:02;93665.63;;;11.54;100.00
22047;BME280;11187;49.412;20.956;2022-09-27T09:33:45;93661.06;;;11.61;100.00
22047;BME280;11187;49.412;20.956;2022-09-27T09:36:43;93656.50;;;11.67;100.00
22047;BME280;11187;49.412;20.956;2022-09-27T09:39:33;93656.88;;;11.77;100.00
22047;BME280;11187;49.412;20.956;2022-09-27T09:45:50;93639.50;;;11.84;100.00
22047;BME280;11187;49.412;20.956;2022-09-27T09:48:46;93645.25;;;11.89;100.00
22047;BME280;11187;49.412;20.956;2022-09-27T09:51:39;93645.03;;;11.94;100.00
22047;BME280;11187;49.412;20.956;2022-09-27T09:54:26;93636.03;;;12.04;100.00
22047;BME280;11187;49.412;20.956;2022-09-27T09:57:22;93637.38;;;12.11;100.00
22047;BME280;11187;49.412;20.956;2022-09-27T10:00:06;93632.69;;;12.19;100.00
22047;BME280;11187;49.412;20.956;2022-09-27T10:02:59;93623.72;;;12.28;100.00
22047;BME280;11187;49.412;20.956;2022-09-27T10:05:33;93619.88;;;12.37;100.00
22047;BME280;11187;49.412;20.956;2022-09-27T10:08:26;93614.28;;;12.46;100.00
22047;BME280;11187;49.412;20.956;2022-09-27T10:11:00;93620.88;;;12.51;100.00
22047;BME280;11187;49.412;20.956;2022-09-27T10:13:53;93618.66;;;12.61;100.00
22047;BME280;11187;49.412;20.956;2022-09-27T10:16:52;93625.97;;;12.69;100.00
22047;BME280;11187;49.412;20.956;2022-09-27T10:19:29;93624.50;;;12.81;100.00
22047;BME280;11187;49.412;20.956;2022-09-27T10:22:39;93613.03;;;12.88;100.00
22047;BME280;11187;49.412;20.956;2022-09-27T10:25:15;93609.25;;;12.95;100.00
22047;BME280;11187;49.412;20.956;2022-09-27T10:28:08;93611.56;;;13.00;100.00
22047;BME280;11187;49.412;20.956;2022-09-27T10:30:42;93612.91;;;13.07;100.00
22047;BME280;11187;49.412;20.956;2022-09-27T10:33:39;93615.31;;;13.10;100.00
22047;BME280;11187;49.412;20.956;2022-09-27T10:36:28;93612.66;;;13.11;100.00
22047;BME280;11187;49.412;20.956;2022-09-27T10:39:21;93598.81;;;13.14;100.00
22047;BME280;11187;49.412;20.956;2022-09-27T10:41:56;93603.59;;;13.22;100.00
22047;BME280;11187;49.412;20.956;2022-09-27T10:44:49;93598.13;;;13.28;100.00
22047;BME280;11187;49.412;20.956;2022-09-27T10:47:44;93604.44;;;13.38;100.00
22047;BME280;11187;49.412;20.956;2022-09-27T10:50:26;93602.22;;;13.48;100.00
22047;BME280;11187;49.412;20.956;2022-09-27T10:53:31;93595.81;;;13.55;100.00
22047;BME280;11187;49.412;20.956;2022-09-27T10:56:06;93585.13;;;13.63;100.00
22047;BME280;11187;49.412;20.956;2022-09-27T10:58:53;93589.16;;;13.67;100.00
22047;BME280;11187;49.412;20.956;2022-09-27T11:01:44;93582.94;;;13.71;100.00
22047;BME280;11187;49.412;20.956;2022-09-27T11:04:40;93591.22;;;13.76;100.00
22047;BME280;11187;49.412;20.956;2022-09-27T11:07:46;93586.75;;;13.79;100.00
22047;BME280;11187;49.412;20.956;2022-09-27T11:10:29;93590.91;;;13.82;100.00
22047;BME280;11187;49.412;20.956;2022-09-27T11:13:26;93583.94;;;13.84;100.00
22047;BME280;11187;49.412;20.956;2022-09-27T11:25:41;93556.66;;;13.82;100.00
22047;BME280;11187;49.412;20.956;2022-09-27T11:37:59;93569.72;;;13.63;100.00
22047;BME280;11187;49.412;20.956;2022-09-27T11:41:34;93568.59;;;13.51;100.00
22047;BME280;11187;49.412;20.956;2022-09-27T11:57:35;93551.25;;;13.23;100.00
22047;BME280;11187;49.412;20.956;2022-09-27T12:06:46;93539.56;;;13.17;100.00
22047;BME280;11187;49.412;20.956;2022-09-27T12:09:47;93531.13;;;13.15;100.00
22047;BME280;11187;49.412;20.956;2022-09-27T12:12:27;93535.03;;;13.22;100.00
22047;BME280;11187;49.412;20.956;2022-09-27T12:15:28;93527.94;;;13.26;100.00
22047;BME280;11187;49.412;20.956;2022-09-27T12:18:31;93531.38;;;13.26;100.00
22047;BME280;11187;49.412;20.956;2022-09-27T12:21:31;93518.53;;;13.26;100.00
22047;BME280;11187;49.412;20.956;2022-09-27T12:24:26;93513.31;;;13.28;100.00
22047;BME280;11187;49.412;20.956;2022-09-27T12:27:12;93518.19;;;13.32;100.00
22047;BME280;11187;49.412;20.956;2022-09-27T12:30:12;93518.81;;;13.38;100.00
22047;BME280;11187;49.412;20.956;2022-09-27T12:33:07;93519.53;;;13.40;100.00
22047;BME280;11187;49.412;20.956;2022-09-27T12:36:01;93516.88;;;13.41;100.00
22047;BME280;11187;49.412;20.956;2022-09-27T12:38:41;93514.22;;;13.43;100.00
22047;BME280;11187;49.412;20.956;2022-09-27T12:41:35;93512.41;;;13.45;100.00
22047;BME280;11187;49.412;20.956;2022-09-27T12:44:10;93512.22;;;13.48;100.00
22047;BME280;11187;49.412;20.956;2022-09-27T12:52:57;93506.06;;;13.66;100.00
22047;BME280;11187;49.412;20.956;2022-09-27T13:11:50;93486.81;;;13.57;100.00
22047;BME280;11187;49.412;20.956;2022-09-27T13:14:34;93480.03;;;13.56;100.00
22047;BME280;11187;49.412;20.956;2022-09-27T13:20:35;93474.91;;;13.56;100.00
22047;BME280;11187;49.412;20.956;2022-09-27T13:29:23;93479.22;;;13.56;100.00
22047;BME280;11187;49.412;20.956;2022-09-27T13:32:17;93478.38;;;13.55;100.00
22047;BME280;11187;49.412;20.956;2022-09-27T13:35:19;93480.94;;;13.55;100.00
22047;BME280;11187;49.412;20.956;2022-09-27T13:38:22;93486.78;;;13.73;100.00
22047;BME280;11187;49.412;20.956;2022-09-27T13:41:18;93475.75;;;13.71;100.00
22047;BME280;11187;49.412;20.956;2022-09-27T13:50:03;93487.81;;;13.55;100.00
22047;BME280;11187;49.412;20.956;2022-09-27T13:55:53;93479.81;;;13.45;100.00
22047;BME280;11187;49.412;20.956;2022-09-27T13:58:49;93477.38;;;13.58;100.00
22047;BME280;11187;49.412;20.956;2022-09-27T14:01:49;93469.91;;;13.53;100.00
22047;BME280;11187;49.412;20.956;2022-09-27T14:04:28;93473.47;;;13.51;100.00
22047;BME280;11187;49.412;20.956;2022-09-27T14:07:26;93478.06;;;13.46;100.00
22047;BME280;11187;49.412;20.956;2022-09-27T14:10:04;93469.72;;;13.42;100.00
22047;BME280;11187;49.412;20.956;2022-09-27T14:12:59;93465.66;;;13.38;100.00
22047;BME280;11187;49.412;20.956;2022-09-27T14:15:59;93456.44;;;13.34;100.00
22047;BME280;11187;49.412;20.956;2022-09-27T14:18:42;93465.16;;;13.31;100.00
22047;BME280;11187;49.412;20.956;2022-09-27T14:21:33;93454.94;;;13.30;100.00
22047;BME280;11187;49.412;20.956;2022-09-27T14:24:32;93450.78;;;13.27;100.00
22047;BME280;11187;49.412;20.956;2022-09-27T14:27:34;93450.09;;;13.24;100.00
22047;BME280;11187;49.412;20.956;2022-09-27T14:30:13;93457.09;;;13.22;100.00
22047;BME280;11187;49.412;20.956;2022-09-27T14:33:00;93445.22;;;13.19;100.00
22047;BME280;11187;49.412;20.956;2022-09-27T14:35:46;93452.19;;;13.17;100.00
22047;BME280;11187;49.412;20.956;2022-09-27T14:38:52;93455.75;;;13.14;100.00
22047;BME280;11187;49.412;20.956;2022-09-27T14:41:25;93449.78;;;13.14;100.00
22047;BME280;11187;49.412;20.956;2022-09-27T14:44:20;93449.06;;;13.12;100.00
22047;BME280;11187;49.412;20.956;2022-09-27T14:47:21;93450.78;;;13.11;100.00
22047;BME280;11187;49.412;20.956;2022-09-27T14:53:23;93436.56;;;13.06;100.00
22047;BME280;11187;49.412;20.956;2022-09-27T14:56:22;93442.78;;;13.02;100.00
22047;BME280;11187;49.412;20.956;2022-09-27T14:59:34;93453.94;;;13.01;100.00
22047;BME280;11187;49.412;20.956;2022-09-27T15:02:17;93451.47;;;12.99;100.00
22047;BME280;11187;49.412;20.956;2022-09-27T15:05:12;93453.19;;;12.99;100.00
22047;BME280;11187;49.412;20.956;2022-09-27T15:07:47;93444.75;;;12.96;100.00
22047;BME280;11187;49.412;20.956;2022-09-27T15:10:47;93439.72;;;12.95;100.00
22047;BME280;11187;49.412;20.956;2022-09-27T15:13:21;93434.66;;;12.93;100.00
22047;BME280;11187;49.412;20.956;2022-09-27T15:16:20;93436.38;;;12.93;100.00
22047;BME280;11187;49.412;20.956;2022-09-27T15:19:23;93434.81;;;12.90;100.00
22047;BME280;11187;49.412;20.956;2022-09-27T15:22:28;93435.72;;;12.89;100.00
22047;BME280;11187;49.412;20.956;2022-09-27T15:25:35;93447.00;;;12.87;100.00
22047;BME280;11187;49.412;20.956;2022-09-27T15:28:31;93437.72;;;12.84;100.00
22047;BME280;11187;49.412;20.956;2022-09-27T15:31:33;93442.03;;;12.84;100.00
22047;BME280;11187;49.412;20.956;2022-09-27T15:34:27;93440.34;;;12.83;100.00
22047;BME280;11187;49.412;20.956;2022-09-27T15:37:26;93432.75;;;12.81;100.00
22047;BME280;11187;49.412;20.956;2022-09-27T15:41:05;93444.91;;;12.78;100.00
22047;BME280;11187;49.412;20.956;2022-09-27T15:43:34;93446.84;;;12.74;100.00
22047;BME280;11187;49.412;20.956;2022-09-27T15:46:34;93436.63;;;12.72;100.00
22047;BME280;11187;49.412;20.956;2022-09-27T15:49:25;93446.09;;;12.72;100.00
22047;BME280;11187;49.412;20.956;2022-09-27T15:52:39;93446.22;;;12.69;100.00
22047;BME280;11187;49.412;20.956;2022-09-27T15:55:20;93452.28;;;12.68;100.00
22047;BME280;11187;49.412;20.956;2022-09-27T15:58:18;93449.78;;;12.66;100.00
22047;BME280;11187;49.412;20.956;2022-09-27T16:01:17;93442.16;;;12.65;100.00
22047;BME280;11187;49.412;20.956;2022-09-27T16:03:51;93438.78;;;12.64;100.00
22047;BME280;11187;49.412;20.956;2022-09-27T16:06:38;93445.66;;;12.64;100.00
22047;BME280;11187;49.412;20.956;2022-09-27T16:09:16;93448.28;;;12.62;100.00
22047;BME280;11187;49.412;20.956;2022-09-27T16:12:10;93454.34;;;12.61;100.00
22047;BME280;11187;49.412;20.956;2022-09-27T16:15:04;93453.53;;;12.77;100.00
22047;BME280;11187;49.412;20.956;2022-09-27T16:17:37;93452.88;;;13.05;100.00
22047;BME280;11187;49.412;20.956;2022-09-27T16:20:31;93454.88;;;13.00;100.00
22047;BME280;11187;49.412;20.956;2022-09-27T16:23:25;93457.13;;;12.90;100.00
22047;BME280;11187;49.412;20.956;2022-09-27T16:26:19;93451.38;;;13.01;100.00
22047;BME280;11187;49.412;20.956;2022-09-27T16:28:52;93461.16;;;13.10;100.00
22047;BME280;11187;49.412;20.956;2022-09-27T16:31:46;93457.50;;;12.98;100.00
22047;BME280;11187;49.412;20.956;2022-09-27T16:34:40;93447.00;;;12.87;100.00
22047;BME280;11187;49.412;20.956;2022-09-27T16:37:13;93455.63;;;12.86;100.00
22047;BME280;11187;49.412;20.956;2022-09-27T16:40:00;93450.88;;;12.94;100.00
22047;BME280;11187;49.412;20.956;2022-09-27T16:42:34;93458.09;;;12.87;100.00
22047;BME280;11187;49.412;20.956;2022-09-27T16:45:22;93451.81;;;12.77;100.00
22047;BME280;11187;49.412;20.956;2022-09-27T16:47:55;93451.47;;;12.67;100.00
22047;BME280;11187;49.412;20.956;2022-09-27T16:50:42;93452.78;;;12.59;100.00
22047;BME280;11187;49.412;20.956;2022-09-27T16:53:33;93444.72;;;12.49;100.00
22047;BME280;11187;49.412;20.956;2022-09-27T16:56:20;93454.41;;;12.44;100.00
22047;BME280;11187;49.412;20.956;2022-09-27T16:58:53;93458.13;;;12.38;100.00
22047;BME280;11187;49.412;20.956;2022-09-27T17:01:43;93454.94;;;12.33;100.00
22047;BME280;11187;49.412;20.956;2022-09-27T17:04:16;93451.72;;;12.29;100.00
22047;BME280;11187;49.412;20.956;2022-09-27T17:07:10;93455.28;;;12.27;100.00
22047;BME280;11187;49.412;20.956;2022-09-27T17:09:44;93456.34;;;12.23;100.00
22047;BME280;11187;49.412;20.956;2022-09-27T17:12:31;93457.34;;;12.20;100.00